sensor_id;sensor_type;location;lat;lon;timestamp;P1;durP1;ratioP1;P2;durP2;ratioP2
32501;SDS011;18952;52.516;13.460;2023-05-07T00:02:26;21.42;;;15.77;;
32501;SDS011;18952;52.516;13.460;2023-05-07T00:04:53;18.40;;;15.65;;
32501;SDS011;18952;52.516;13.460;2023-05-07T00:07:20;17.13;;;15.27;;
32501;SDS011;18952;52.516;13.460;2023-05-07T00:09:47;18.40;;;15.63;;
32501;SDS011;18952;52.516;13.460;2023-05-07T00:12:15;17.80;;;15.52;;
32501;SDS011;18952;52.516;13.460;2023-05-07T00:14:42;19.70;;;15.68;;
32501;SDS011;18952;52.516;13.460;2023-05-07T00:17:09;19.02;;;15.90;;
32501;SDS011;18952;52.516;13.460;2023-05-07T00:19:37;18.38;;;14.35;;
32501;SDS011;18952;52.516;13.460;2023-05-07T00:22:03;21.77;;;15.25;;
32501;SDS011;18952;52.516;13.460;2023-05-07T00:24:30;22.80;;;14.57;;
32501;SDS011;18952;52.516;13.460;2023-05-07T00:26:59;17.52;;;14.35;;
32501;SDS011;18952;52.516;13.460;2023-05-07T00:29:28;20.90;;;15.27;;
32501;SDS011;18952;52.516;13.460;2023-05-07T00:31:57;18.25;;;15.52;;
32501;SDS011;18952;52.516;13.460;2023-05-07T00:34:24;20.98;;;15.13;;
32501;SDS011;18952;52.516;13.460;2023-05-07T00:36:51;17.00;;;14.48;;
32501;SDS011;18952;52.516;13.460;2023-05-07T00:39:18;17.80;;;15.48;;
32501;SDS011;18952;52.516;13.460;2023-05-07T00:41:44;17.02;;;14.70;;
32501;SDS011;18952;52.516;13.460;2023-05-07T00:44:11;20.20;;;14.57;;
32501;SDS011;18952;52.516;13.460;2023-05-07T00:46:38;18.17;;;16.15;;
32501;SDS011;18952;52.516;13.460;2023-05-07T00:49:05;19.38;;;14.95;;
32501;SDS011;18952;52.516;13.460;2023-05-07T00:51:32;18.17;;;15.30;;
32501;SDS011;18952;52.516;13.460;2023-05-07T00:54:00;17.45;;;15.63;;
32501;SDS011;18952;52.516;13.460;2023-05-07T00:56:28;16.67;;;14.98;;
32501;SDS011;18952;52.516;13.460;2023-05-07T00:58:55;18.60;;;15.38;;
32501;SDS011;18952;52.516;13.460;2023-05-07T01:01:22;18.58;;;15.32;;
32501;SDS011;18952;52.516;13.460;2023-05-07T01:03:50;20.15;;;15.30;;
32501;SDS011;18952;52.516;13.460;2023-05-07T01:06:17;20.08;;;15.90;;
32501;SDS011;18952;52.516;13.460;2023-05-07T01:08:46;17.45;;;15.15;;
32501;SDS011;18952;52.516;13.460;2023-05-07T01:11:14;18.58;;;15.82;;
32501;SDS011;18952;52.516;13.460;2023-05-07T01:13:52;18.42;;;15.10;;
32501;SDS011;18952;52.516;13.460;2023-05-07T01:16:23;16.77;;;15.05;;
32501;SDS011;18952;52.516;13.460;2023-05-07T01:18:51;17.45;;;15.13;;
32501;SDS011;18952;52.516;13.460;2023-05-07T01:21:23;21.20;;;15.48;;
32501;SDS011;18952;52.516;13.460;2023-05-07T01:23:54;16.25;;;14.60;;
32501;SDS011;18952;52.516;13.460;2023-05-07T01:26:22;18.77;;;14.70;;
32501;SDS011;18952;52.516;13.460;2023-05-07T01:28:49;16.48;;;14.55;;
32501;SDS011;18952;52.516;13.460;2023-05-07T01:31:15;18.23;;;14.02;;
32501;SDS011;18952;52.516;13.460;2023-05-07T01:33:44;17.70;;;14.05;;
32501;SDS011;18952;52.516;13.460;2023-05-07T01:36:12;17.48;;;14.57;;
32501;SDS011;18952;52.516;13.460;2023-05-07T01:38:40;17.38;;;14.32;;
32501;SDS011;18952;52.516;13.460;2023-05-07T01:41:08;16.50;;;14.18;;
32501;SDS011;18952;52.516;13.460;2023-05-07T01:43:35;17.83;;;14.27;;
32501;SDS011;18952;52.516;13.460;2023-05-07T01:46:02;18.45;;;13.68;;
32501;SDS011;18952;52.516;13.460;2023-05-07T01:48:30;16.65;;;14.25;;
32501;SDS011;18952;52.516;13.460;2023-05-07T01:50:59;16.98;;;13.85;;
32501;SDS011;18952;52.516;13.460;2023-05-07T01:53:27;15.30;;;13.10;;
32501;SDS011;18952;52.516;13.460;2023-05-07T01:55:54;18.00;;;14.07;;
32501;SDS011;18952;52.516;13.460;2023-05-07T01:58:20;14.85;;;13.27;;
32501;SDS011;18952;52.516;13.460;2023-05-07T02:00:47;18.38;;;14.68;;
32501;SDS011;18952;52.516;13.460;2023-05-07T02:03:14;15.75;;;13.82;;
32501;SDS011;18952;52.516;13.460;2023-05-07T02:05:41;16.70;;;14.43;;
32501;SDS011;18952;52.516;13.460;2023-05-07T02:08:07;21.60;;;14.45;;
32501;SDS011;18952;52.516;13.460;2023-05-07T02:10:34;19.67;;;14.98;;
32501;SDS011;18952;52.516;13.460;2023-05-07T02:13:01;18.30;;;14.48;;
32501;SDS011;18952;52.516;13.460;2023-05-07T02:15:29;17.38;;;14.32;;
32501;SDS011;18952;52.516;13.460;2023-05-07T02:17:58;17.20;;;15.07;;
32501;SDS011;18952;52.516;13.460;2023-05-07T02:20:31;18.65;;;14.25;;
32501;SDS011;18952;52.516;13.460;2023-05-07T02:22:57;17.40;;;15.27;;
32501;SDS011;18952;52.516;13.460;2023-05-07T02:25:24;17.70;;;14.70;;
32501;SDS011;18952;52.516;13.460;2023-05-07T02:27:51;18.15;;;14.65;;
32501;SDS011;18952;52.516;13.460;2023-05-07T02:30:18;16.60;;;14.90;;
32501;SDS011;18952;52.516;13.460;2023-05-07T02:32:44;15.27;;;13.63;;
32501;SDS011;18952;52.516;13.460;2023-05-07T02:35:11;17.77;;;14.07;;
32501;SDS011;18952;52.516;13.460;2023-05-07T02:37:38;19.10;;;15.63;;
32501;SDS011;18952;52.516;13.460;2023-05-07T02:40:05;16.52;;;13.88;;
32501;SDS011;18952;52.516;13.460;2023-05-07T02:42:32;17.20;;;14.20;;
32501;SDS011;18952;52.516;13.460;2023-05-07T02:44:59;17.50;;;14.70;;
32501;SDS011;18952;52.516;13.460;2023-05-07T02:47:26;21.88;;;14.23;;
32501;SDS011;18952;52.516;13.460;2023-05-07T02:49:53;16.20;;;13.73;;
32501;SDS011;18952;52.516;13.460;2023-05-07T02:52:20;19.58;;;13.75;;
32501;SDS011;18952;52.516;13.460;2023-05-07T02:54:48;17.58;;;13.40;;
32501;SDS011;18952;52.516;13.460;2023-05-07T02:57:16;16.77;;;13.52;;
32501;SDS011;18952;52.516;13.460;2023-05-07T02:59:43;14.52;;;12.93;;
32501;SDS011;18952;52.516;13.460;2023-05-07T03:02:11;15.93;;;13.40;;
32501;SDS011;18952;52.516;13.460;2023-05-07T03:04:39;13.93;;;12.50;;
32501;SDS011;18952;52.516;13.460;2023-05-07T03:07:08;15.52;;;13.25;;
32501;SDS011;18952;52.516;13.460;2023-05-07T03:09:35;18.02;;;13.45;;
32501;SDS011;18952;52.516;13.460;2023-05-07T03:12:02;17.20;;;13.10;;
32501;SDS011;18952;52.516;13.460;2023-05-07T03:14:28;14.75;;;13.05;;
32501;SDS011;18952;52.516;13.460;2023-05-07T03:16:55;16.85;;;13.32;;
32501;SDS011;18952;52.516;13.460;2023-05-07T03:19:22;18.98;;;13.32;;
32501;SDS011;18952;52.516;13.460;2023-05-07T03:21:49;17.60;;;13.15;;
32501;SDS011;18952;52.516;13.460;2023-05-07T03:24:16;18.50;;;13.48;;
32501;SDS011;18952;52.516;13.460;2023-05-07T03:26:46;15.77;;;13.18;;
32501;SDS011;18952;52.516;13.460;2023-05-07T03:29:26;15.10;;;13.48;;
32501;SDS011;18952;52.516;13.460;2023-05-07T03:31:53;15.18;;;13.50;;
32501;SDS011;18952;52.516;13.460;2023-05-07T03:34:20;16.55;;;13.88;;
32501;SDS011;18952;52.516;13.460;2023-05-07T03:36:50;14.48;;;12.95;;
32501;SDS011;18952;52.516;13.460;2023-05-07T03:39:17;15.57;;;13.50;;
32501;SDS011;18952;52.516;13.460;2023-05-07T03:41:44;14.38;;;12.88;;
32501;SDS011;18952;52.516;13.460;2023-05-07T03:44:10;14.80;;;13.15;;
32501;SDS011;18952;52.516;13.460;2023-05-07T03:46:37;19.17;;;14.23;;
32501;SDS011;18952;52.516;13.460;2023-05-07T03:49:04;19.10;;;13.57;;
32501;SDS011;18952;52.516;13.460;2023-05-07T03:51:32;17.20;;;14.38;;
32501;SDS011;18952;52.516;13.460;2023-05-07T03:53:58;15.98;;;13.40;;
32501;SDS011;18952;52.516;13.460;2023-05-07T03:56:27;14.93;;;13.13;;
32501;SDS011;18952;52.516;13.460;2023-05-07T03:58:55;15.90;;;13.38;;
32501;SDS011;18952;52.516;13.460;2023-05-07T04:01:22;14.95;;;12.25;;
32501;SDS011;18952;52.516;13.460;2023-05-07T04:03:49;16.25;;;12.00;;
32501;SDS011;18952;52.516;13.460;2023-05-07T04:06:16;13.88;;;12.40;;
32501;SDS011;18952;52.516;13.460;2023-05-07T04:08:43;15.45;;;12.77;;
32501;SDS011;18952;52.516;13.460;2023-05-07T04:11:10;15.13;;;13.27;;
32501;SDS011;18952;52.516;13.460;2023-05-07T04:13:36;13.52;;;12.13;;
32501;SDS011;18952;52.516;13.460;2023-05-07T04:16:05;13.65;;;12.35;;
32501;SDS011;18952;52.516;13.460;2023-05-07T04:18:32;12.93;;;11.63;;
32501;SDS011;18952;52.516;13.460;2023-05-07T04:20:59;13.98;;;12.00;;
32501;SDS011;18952;52.516;13.460;2023-05-07T04:23:27;12.75;;;11.45;;
32501;SDS011;18952;52.516;13.460;2023-05-07T04:25:54;14.25;;;11.05;;
32501;SDS011;18952;52.516;13.460;2023-05-07T04:28:21;15.43;;;10.68;;
32501;SDS011;18952;52.516;13.460;2023-05-07T04:30:47;12.43;;;11.13;;
32501;SDS011;18952;52.516;13.460;2023-05-07T04:33:14;14.05;;;11.10;;
32501;SDS011;18952;52.516;13.460;2023-05-07T04:35:41;13.43;;;10.70;;
32501;SDS011;18952;52.516;13.460;2023-05-07T04:38:08;14.68;;;10.93;;
32501;SDS011;18952;52.516;13.460;2023-05-07T04:40:37;14.52;;;10.38;;
32501;SDS011;18952;52.516;13.460;2023-05-07T04:43:04;11.70;;;10.38;;
32501;SDS011;18952;52.516;13.460;2023-05-07T04:45:32;10.98;;;9.88;;
32501;SDS011;18952;52.516;13.460;2023-05-07T04:48:00;11.85;;;9.93;;
32501;SDS011;18952;52.516;13.460;2023-05-07T04:50:28;11.07;;;9.73;;
32501;SDS011;18952;52.516;13.460;2023-05-07T04:52:55;10.77;;;9.65;;
32501;SDS011;18952;52.516;13.460;2023-05-07T04:55:21;10.88;;;9.27;;
32501;SDS011;18952;52.516;13.460;2023-05-07T04:57:48;15.63;;;10.10;;
32501;SDS011;18952;52.516;13.460;2023-05-07T05:00:15;12.85;;;9.40;;
32501;SDS011;18952;52.516;13.460;2023-05-07T05:02:42;10.48;;;8.35;;
32501;SDS011;18952;52.516;13.460;2023-05-07T05:05:10;10.40;;;9.32;;
32501;SDS011;18952;52.516;13.460;2023-05-07T05:07:37;12.18;;;8.40;;
32501;SDS011;18952;52.516;13.460;2023-05-07T05:10:04;9.57;;;8.32;;
32501;SDS011;18952;52.516;13.460;2023-05-07T05:12:32;11.10;;;8.60;;
32501;SDS011;18952;52.516;13.460;2023-05-07T05:14:59;11.90;;;9.15;;
32501;SDS011;18952;52.516;13.460;2023-05-07T05:17:25;10.73;;;8.95;;
32501;SDS011;18952;52.516;13.460;2023-05-07T05:19:53;12.05;;;8.75;;
32501;SDS011;18952;52.516;13.460;2023-05-07T05:22:21;10.82;;;8.75;;
32501;SDS011;18952;52.516;13.460;2023-05-07T05:24:50;13.52;;;9.75;;
32501;SDS011;18952;52.516;13.460;2023-05-07T05:27:16;10.90;;;9.48;;
32501;SDS011;18952;52.516;13.460;2023-05-07T05:29:43;11.38;;;9.65;;
32501;SDS011;18952;52.516;13.460;2023-05-07T05:32:10;14.10;;;10.50;;
32501;SDS011;18952;52.516;13.460;2023-05-07T05:34:36;14.32;;;9.95;;
32501;SDS011;18952;52.516;13.460;2023-05-07T05:37:03;12.95;;;9.57;;
32501;SDS011;18952;52.516;13.460;2023-05-07T05:39:30;12.45;;;10.10;;
32501;SDS011;18952;52.516;13.460;2023-05-07T05:41:57;12.00;;;9.63;;
32501;SDS011;18952;52.516;13.460;2023-05-07T05:44:23;10.02;;;9.05;;
32501;SDS011;18952;52.516;13.460;2023-05-07T05:46:50;15.32;;;9.98;;
32501;SDS011;18952;52.516;13.460;2023-05-07T05:49:18;11.25;;;9.77;;
32501;SDS011;18952;52.516;13.460;2023-05-07T05:51:45;11.30;;;9.75;;
32501;SDS011;18952;52.516;13.460;2023-05-07T05:54:13;12.48;;;10.15;;
32501;SDS011;18952;52.516;13.460;2023-05-07T05:56:40;12.15;;;9.75;;
32501;SDS011;18952;52.516;13.460;2023-05-07T05:59:09;10.85;;;9.35;;
32501;SDS011;18952;52.516;13.460;2023-05-07T06:01:45;10.95;;;9.45;;
32501;SDS011;18952;52.516;13.460;2023-05-07T06:04:12;10.45;;;9.25;;
32501;SDS011;18952;52.516;13.460;2023-05-07T06:06:38;11.30;;;9.70;;
32501;SDS011;18952;52.516;13.460;2023-05-07T06:09:05;10.60;;;9.20;;
32501;SDS011;18952;52.516;13.460;2023-05-07T06:11:32;11.10;;;9.90;;
32501;SDS011;18952;52.516;13.460;2023-05-07T06:13:59;14.32;;;9.57;;
32501;SDS011;18952;52.516;13.460;2023-05-07T06:16:25;12.55;;;9.68;;
32501;SDS011;18952;52.516;13.460;2023-05-07T06:18:52;15.20;;;9.68;;
32501;SDS011;18952;52.516;13.460;2023-05-07T06:21:19;13.65;;;9.50;;
32501;SDS011;18952;52.516;13.460;2023-05-07T06:23:46;9.60;;;8.60;;
32501;SDS011;18952;52.516;13.460;2023-05-07T06:26:12;10.40;;;8.73;;
32501;SDS011;18952;52.516;13.460;2023-05-07T06:28:39;10.18;;;8.90;;
32501;SDS011;18952;52.516;13.460;2023-05-07T06:31:12;13.30;;;8.77;;
32501;SDS011;18952;52.516;13.460;2023-05-07T06:33:40;14.75;;;9.18;;
32501;SDS011;18952;52.516;13.460;2023-05-07T06:36:08;11.98;;;8.25;;
32501;SDS011;18952;52.516;13.460;2023-05-07T06:38:35;12.07;;;8.60;;
32501;SDS011;18952;52.516;13.460;2023-05-07T06:41:03;9.40;;;8.50;;
32501;SDS011;18952;52.516;13.460;2023-05-07T06:43:31;9.98;;;8.18;;
32501;SDS011;18952;52.516;13.460;2023-05-07T06:45:59;9.55;;;8.07;;
32501;SDS011;18952;52.516;13.460;2023-05-07T06:48:26;10.30;;;8.00;;
32501;SDS011;18952;52.516;13.460;2023-05-07T06:50:54;9.57;;;7.70;;
32501;SDS011;18952;52.516;13.460;2023-05-07T06:53:43;9.35;;;7.90;;
32501;SDS011;18952;52.516;13.460;2023-05-07T06:56:10;9.75;;;7.65;;
32501;SDS011;18952;52.516;13.460;2023-05-07T06:58:38;10.55;;;7.35;;
32501;SDS011;18952;52.516;13.460;2023-05-07T07:01:05;8.45;;;6.53;;
32501;SDS011;18952;52.516;13.460;2023-05-07T07:03:32;9.40;;;6.55;;
32501;SDS011;18952;52.516;13.460;2023-05-07T07:06:01;11.82;;;8.82;;
32501;SDS011;18952;52.516;13.460;2023-05-07T07:08:29;8.93;;;7.75;;
32501;SDS011;18952;52.516;13.460;2023-05-07T07:10:55;10.40;;;8.10;;
32501;SDS011;18952;52.516;13.460;2023-05-07T07:13:22;9.48;;;7.90;;
32501;SDS011;18952;52.516;13.460;2023-05-07T07:15:49;10.25;;;7.57;;
32501;SDS011;18952;52.516;13.460;2023-05-07T07:18:16;11.23;;;7.32;;
32501;SDS011;18952;52.516;13.460;2023-05-07T07:20:42;7.68;;;6.85;;
32501;SDS011;18952;52.516;13.460;2023-05-07T07:23:09;8.27;;;6.60;;
32501;SDS011;18952;52.516;13.460;2023-05-07T07:25:36;7.75;;;6.78;;
32501;SDS011;18952;52.516;13.460;2023-05-07T07:28:03;9.52;;;6.20;;
32501;SDS011;18952;52.516;13.460;2023-05-07T07:30:30;6.57;;;5.85;;
32501;SDS011;18952;52.516;13.460;2023-05-07T07:32:56;10.20;;;6.10;;
32501;SDS011;18952;52.516;13.460;2023-05-07T07:35:23;8.52;;;5.55;;
32501;SDS011;18952;52.516;13.460;2023-05-07T07:37:51;8.05;;;5.75;;
32501;SDS011;18952;52.516;13.460;2023-05-07T07:40:19;10.25;;;5.43;;
32501;SDS011;18952;52.516;13.460;2023-05-07T07:42:47;14.88;;;5.88;;
32501;SDS011;18952;52.516;13.460;2023-05-07T07:45:14;10.18;;;5.38;;
32501;SDS011;18952;52.516;13.460;2023-05-07T07:47:42;8.15;;;5.55;;
32501;SDS011;18952;52.516;13.460;2023-05-07T07:50:09;7.95;;;5.70;;
32501;SDS011;18952;52.516;13.460;2023-05-07T07:52:36;10.80;;;5.72;;
32501;SDS011;18952;52.516;13.460;2023-05-07T07:55:03;9.70;;;5.00;;
32501;SDS011;18952;52.516;13.460;2023-05-07T07:57:30;8.57;;;5.40;;
32501;SDS011;18952;52.516;13.460;2023-05-07T07:59:57;6.32;;;4.50;;
32501;SDS011;18952;52.516;13.460;2023-05-07T08:02:24;5.80;;;4.35;;
32501;SDS011;18952;52.516;13.460;2023-05-07T08:04:51;8.07;;;4.20;;
32501;SDS011;18952;52.516;13.460;2023-05-07T08:07:18;6.53;;;4.57;;
32501;SDS011;18952;52.516;13.460;2023-05-07T08:09:46;7.40;;;5.20;;
32501;SDS011;18952;52.516;13.460;2023-05-07T08:12:12;4.43;;;4.03;;
32501;SDS011;18952;52.516;13.460;2023-05-07T08:14:39;6.00;;;4.53;;
32501;SDS011;18952;52.516;13.460;2023-05-07T08:17:07;5.00;;;4.07;;
32501;SDS011;18952;52.516;13.460;2023-05-07T08:19:34;6.22;;;3.90;;
32501;SDS011;18952;52.516;13.460;2023-05-07T08:22:03;6.53;;;5.00;;
32501;SDS011;18952;52.516;13.460;2023-05-07T08:24:30;8.27;;;4.30;;
32501;SDS011;18952;52.516;13.460;2023-05-07T08:26:57;5.93;;;4.00;;
32501;SDS011;18952;52.516;13.460;2023-05-07T08:29:23;8.93;;;4.55;;
32501;SDS011;18952;52.516;13.460;2023-05-07T08:31:50;5.47;;;4.20;;
32501;SDS011;18952;52.516;13.460;2023-05-07T08:34:17;4.28;;;3.60;;
32501;SDS011;18952;52.516;13.460;2023-05-07T08:36:43;4.07;;;3.67;;
32501;SDS011;18952;52.516;13.460;2023-05-07T08:39:10;4.90;;;4.30;;
32501;SDS011;18952;52.516;13.460;2023-05-07T08:41:37;8.38;;;3.83;;
32501;SDS011;18952;52.516;13.460;2023-05-07T08:44:04;5.45;;;3.95;;
32501;SDS011;18952;52.516;13.460;2023-05-07T08:46:37;6.10;;;4.40;;
32501;SDS011;18952;52.516;13.460;2023-05-07T08:49:05;7.32;;;3.80;;
32501;SDS011;18952;52.516;13.460;2023-05-07T08:51:32;7.60;;;3.85;;
32501;SDS011;18952;52.516;13.460;2023-05-07T08:53:58;4.85;;;3.47;;
32501;SDS011;18952;52.516;13.460;2023-05-07T08:56:28;4.78;;;3.53;;
32501;SDS011;18952;52.516;13.460;2023-05-07T08:58:58;6.22;;;3.55;;
32501;SDS011;18952;52.516;13.460;2023-05-07T09:01:26;4.28;;;3.35;;
32501;SDS011;18952;52.516;13.460;2023-05-07T09:03:54;5.53;;;3.67;;
32501;SDS011;18952;52.516;13.460;2023-05-07T09:06:22;5.53;;;3.80;;
32501;SDS011;18952;52.516;13.460;2023-05-07T09:08:49;10.35;;;4.20;;
32501;SDS011;18952;52.516;13.460;2023-05-07T09:11:19;7.28;;;3.65;;
32501;SDS011;18952;52.516;13.460;2023-05-07T09:13:55;5.50;;;3.67;;
32501;SDS011;18952;52.516;13.460;2023-05-07T09:16:23;7.45;;;3.97;;
32501;SDS011;18952;52.516;13.460;2023-05-07T09:18:51;6.75;;;3.70;;
32501;SDS011;18952;52.516;13.460;2023-05-07T09:21:20;5.35;;;3.63;;
32501;SDS011;18952;52.516;13.460;2023-05-07T09:23:52;5.13;;;3.78;;
32501;SDS011;18952;52.516;13.460;2023-05-07T09:26:23;4.35;;;3.60;;
32501;SDS011;18952;52.516;13.460;2023-05-07T09:28:51;6.25;;;4.03;;
32501;SDS011;18952;52.516;13.460;2023-05-07T09:31:21;8.52;;;4.38;;
32501;SDS011;18952;52.516;13.460;2023-05-07T09:33:48;4.80;;;3.80;;
32501;SDS011;18952;52.516;13.460;2023-05-07T09:36:15;8.30;;;4.10;;
32501;SDS011;18952;52.516;13.460;2023-05-07T09:38:42;6.25;;;3.80;;
32501;SDS011;18952;52.516;13.460;2023-05-07T09:41:09;5.05;;;3.80;;
32501;SDS011;18952;52.516;13.460;2023-05-07T09:43:39;6.60;;;3.53;;
32501;SDS011;18952;52.516;13.460;2023-05-07T09:46:07;6.13;;;3.38;;
32501;SDS011;18952;52.516;13.460;2023-05-07T09:48:41;5.88;;;3.72;;
32501;SDS011;18952;52.516;13.460;2023-05-07T09:51:18;6.25;;;3.22;;
32501;SDS011;18952;52.516;13.460;2023-05-07T09:54:10;6.22;;;3.50;;
32501;SDS011;18952;52.516;13.460;2023-05-07T09:56:37;3.85;;;2.85;;
32501;SDS011;18952;52.516;13.460;2023-05-07T09:59:06;3.80;;;2.70;;
32501;SDS011;18952;52.516;13.460;2023-05-07T10:01:35;7.95;;;3.95;;
32501;SDS011;18952;52.516;13.460;2023-05-07T10:04:03;3.38;;;2.55;;
32501;SDS011;18952;52.516;13.460;2023-05-07T10:06:30;4.70;;;2.38;;
32501;SDS011;18952;52.516;13.460;2023-05-07T10:08:57;4.25;;;2.58;;
32501;SDS011;18952;52.516;13.460;2023-05-07T10:11:25;2.88;;;2.53;;
32501;SDS011;18952;52.516;13.460;2023-05-07T10:13:52;3.63;;;2.65;;
32501;SDS011;18952;52.516;13.460;2023-05-07T10:16:20;3.20;;;2.38;;
32501;SDS011;18952;52.516;13.460;2023-05-07T10:18:47;5.30;;;2.20;;
32501;SDS011;18952;52.516;13.460;2023-05-07T10:21:16;6.13;;;2.55;;
32501;SDS011;18952;52.516;13.460;2023-05-07T10:23:45;4.07;;;2.42;;
32501;SDS011;18952;52.516;13.460;2023-05-07T10:26:15;3.25;;;2.92;;
32501;SDS011;18952;52.516;13.460;2023-05-07T10:28:46;7.15;;;3.85;;
32501;SDS011;18952;52.516;13.460;2023-05-07T10:31:36;6.78;;;2.50;;
32501;SDS011;18952;52.516;13.460;2023-05-07T10:34:12;4.38;;;2.78;;
32501;SDS011;18952;52.516;13.460;2023-05-07T10:36:43;5.20;;;3.15;;
32501;SDS011;18952;52.516;13.460;2023-05-07T10:39:10;4.63;;;2.33;;
32501;SDS011;18952;52.516;13.460;2023-05-07T10:41:37;4.75;;;2.40;;
32501;SDS011;18952;52.516;13.460;2023-05-07T10:44:05;3.45;;;2.28;;
32501;SDS011;18952;52.516;13.460;2023-05-07T10:46:32;6.07;;;2.67;;
32501;SDS011;18952;52.516;13.460;2023-05-07T10:51:35;4.47;;;2.50;;
32501;SDS011;18952;52.516;13.460;2023-05-07T10:56:38;5.00;;;2.47;;
32501;SDS011;18952;52.516;13.460;2023-05-07T11:02:10;5.07;;;2.40;;
32501;SDS011;18952;52.516;13.460;2023-05-07T11:04:36;6.38;;;4.45;;
32501;SDS011;18952;52.516;13.460;2023-05-07T11:07:24;3.97;;;2.45;;
32501;SDS011;18952;52.516;13.460;2023-05-07T11:09:56;2.85;;;1.92;;
32501;SDS011;18952;52.516;13.460;2023-05-07T11:15:10;4.68;;;2.28;;
32501;SDS011;18952;52.516;13.460;2023-05-07T11:17:57;4.03;;;2.40;;
32501;SDS011;18952;52.516;13.460;2023-05-07T11:25:59;4.15;;;2.25;;
32501;SDS011;18952;52.516;13.460;2023-05-07T11:28:28;4.13;;;2.15;;
32501;SDS011;18952;52.516;13.460;2023-05-07T11:30:56;2.80;;;2.00;;
32501;SDS011;18952;52.516;13.460;2023-05-07T11:33:24;5.03;;;2.40;;
32501;SDS011;18952;52.516;13.460;2023-05-07T11:35:53;3.92;;;2.50;;
32501;SDS011;18952;52.516;13.460;2023-05-07T11:38:20;5.28;;;2.63;;
32501;SDS011;18952;52.516;13.460;2023-05-07T11:40:49;9.93;;;3.33;;
32501;SDS011;18952;52.516;13.460;2023-05-07T11:43:16;4.32;;;2.50;;
32501;SDS011;18952;52.516;13.460;2023-05-07T11:45:48;5.50;;;3.13;;
32501;SDS011;18952;52.516;13.460;2023-05-07T11:48:18;4.45;;;2.70;;
32501;SDS011;18952;52.516;13.460;2023-05-07T11:51:05;3.08;;;2.10;;
32501;SDS011;18952;52.516;13.460;2023-05-07T11:53:38;4.25;;;2.22;;
32501;SDS011;18952;52.516;13.460;2023-05-07T11:56:13;4.78;;;2.30;;
32501;SDS011;18952;52.516;13.460;2023-05-07T11:58:42;3.08;;;1.90;;
32501;SDS011;18952;52.516;13.460;2023-05-07T12:01:11;5.18;;;1.98;;
32501;SDS011;18952;52.516;13.460;2023-05-07T12:03:40;3.83;;;1.50;;
32501;SDS011;18952;52.516;13.460;2023-05-07T12:06:08;3.22;;;2.40;;
32501;SDS011;18952;52.516;13.460;2023-05-07T12:08:40;6.13;;;2.58;;
32501;SDS011;18952;52.516;13.460;2023-05-07T12:11:14;6.82;;;3.75;;
32501;SDS011;18952;52.516;13.460;2023-05-07T12:13:42;5.60;;;3.25;;
32501;SDS011;18952;52.516;13.460;2023-05-07T12:16:10;8.20;;;3.00;;
32501;SDS011;18952;52.516;13.460;2023-05-07T12:18:37;4.53;;;2.60;;
32501;SDS011;18952;52.516;13.460;2023-05-07T12:21:07;4.72;;;2.42;;
32501;SDS011;18952;52.516;13.460;2023-05-07T12:23:47;3.72;;;2.10;;
32501;SDS011;18952;52.516;13.460;2023-05-07T12:26:14;4.75;;;2.03;;
32501;SDS011;18952;52.516;13.460;2023-05-07T12:28:42;6.50;;;2.97;;
32501;SDS011;18952;52.516;13.460;2023-05-07T12:31:09;27.55;;;2.45;;
32501;SDS011;18952;52.516;13.460;2023-05-07T12:33:40;2.92;;;1.65;;
32501;SDS011;18952;52.516;13.460;2023-05-07T12:36:11;5.80;;;3.05;;
32501;SDS011;18952;52.516;13.460;2023-05-07T12:38:43;4.20;;;2.50;;
32501;SDS011;18952;52.516;13.460;2023-05-07T12:41:11;3.70;;;2.20;;
32501;SDS011;18952;52.516;13.460;2023-05-07T12:43:39;3.75;;;2.20;;
32501;SDS011;18952;52.516;13.460;2023-05-07T12:46:20;3.22;;;2.03;;
32501;SDS011;18952;52.516;13.460;2023-05-07T12:48:47;4.25;;;1.83;;
32501;SDS011;18952;52.516;13.460;2023-05-07T12:51:14;5.55;;;2.40;;
32501;SDS011;18952;52.516;13.460;2023-05-07T12:54:00;4.05;;;2.50;;
32501;SDS011;18952;52.516;13.460;2023-05-07T12:56:39;3.85;;;2.42;;
32501;SDS011;18952;52.516;13.460;2023-05-07T12:59:07;3.35;;;1.75;;
32501;SDS011;18952;52.516;13.460;2023-05-07T13:01:34;4.82;;;2.05;;
32501;SDS011;18952;52.516;13.460;2023-05-07T13:04:16;5.40;;;2.17;;
32501;SDS011;18952;52.516;13.460;2023-05-07T13:06:43;2.80;;;2.00;;
32501;SDS011;18952;52.516;13.460;2023-05-07T13:09:11;2.90;;;1.50;;
32501;SDS011;18952;52.516;13.460;2023-05-07T13:11:39;3.38;;;1.70;;
32501;SDS011;18952;52.516;13.460;2023-05-07T13:14:08;3.30;;;1.55;;
32501;SDS011;18952;52.516;13.460;2023-05-07T13:16:43;2.13;;;1.47;;
32501;SDS011;18952;52.516;13.460;2023-05-07T13:19:12;4.55;;;2.33;;
32501;SDS011;18952;52.516;13.460;2023-05-07T13:21:39;6.22;;;2.72;;
32501;SDS011;18952;52.516;13.460;2023-05-07T13:24:06;3.55;;;2.10;;
32501;SDS011;18952;52.516;13.460;2023-05-07T13:26:34;5.65;;;2.13;;
32501;SDS011;18952;52.516;13.460;2023-05-07T13:29:00;5.20;;;2.17;;
32501;SDS011;18952;52.516;13.460;2023-05-07T13:31:27;4.25;;;1.70;;
32501;SDS011;18952;52.516;13.460;2023-05-07T13:33:54;2.38;;;1.60;;
32501;SDS011;18952;52.516;13.460;2023-05-07T13:36:21;4.80;;;1.63;;
32501;SDS011;18952;52.516;13.460;2023-05-07T13:38:50;3.03;;;2.00;;
32501;SDS011;18952;52.516;13.460;2023-05-07T13:41:18;4.63;;;1.48;;
32501;SDS011;18952;52.516;13.460;2023-05-07T13:43:45;5.22;;;1.90;;
32501;SDS011;18952;52.516;13.460;2023-05-07T13:46:13;3.30;;;2.28;;
32501;SDS011;18952;52.516;13.460;2023-05-07T13:48:42;4.20;;;2.70;;
32501;SDS011;18952;52.516;13.460;2023-05-07T13:51:09;4.43;;;2.00;;
32501;SDS011;18952;52.516;13.460;2023-05-07T13:53:36;2.13;;;1.60;;
32501;SDS011;18952;52.516;13.460;2023-05-07T13:56:05;5.03;;;2.10;;
32501;SDS011;18952;52.516;13.460;2023-05-07T13:58:32;5.90;;;3.45;;
32501;SDS011;18952;52.516;13.460;2023-05-07T14:00:59;3.75;;;2.40;;
32501;SDS011;18952;52.516;13.460;2023-05-07T14:03:26;2.70;;;2.05;;
32501;SDS011;18952;52.516;13.460;2023-05-07T14:05:54;5.32;;;2.60;;
32501;SDS011;18952;52.516;13.460;2023-05-07T14:08:21;4.25;;;2.22;;
32501;SDS011;18952;52.516;13.460;2023-05-07T14:10:48;3.38;;;2.05;;
32501;SDS011;18952;52.516;13.460;2023-05-07T14:13:15;2.97;;;2.28;;
32501;SDS011;18952;52.516;13.460;2023-05-07T14:15:42;3.15;;;2.00;;
32501;SDS011;18952;52.516;13.460;2023-05-07T14:18:10;3.10;;;1.80;;
32501;SDS011;18952;52.516;13.460;2023-05-07T14:20:37;2.90;;;1.70;;
32501;SDS011;18952;52.516;13.460;2023-05-07T14:23:04;2.90;;;1.98;;
32501;SDS011;18952;52.516;13.460;2023-05-07T14:25:33;3.75;;;1.65;;
32501;SDS011;18952;52.516;13.460;2023-05-07T14:28:00;5.38;;;2.22;;
32501;SDS011;18952;52.516;13.460;2023-05-07T14:30:27;5.60;;;2.03;;
32501;SDS011;18952;52.516;13.460;2023-05-07T14:32:57;12.38;;;2.72;;
32501;SDS011;18952;52.516;13.460;2023-05-07T14:35:24;4.60;;;2.60;;
32501;SDS011;18952;52.516;13.460;2023-05-07T14:37:50;5.22;;;1.90;;
32501;SDS011;18952;52.516;13.460;2023-05-07T14:40:17;4.07;;;1.98;;
32501;SDS011;18952;52.516;13.460;2023-05-07T14:42:44;2.53;;;1.70;;
32501;SDS011;18952;52.516;13.460;2023-05-07T14:45:10;4.93;;;1.80;;
32501;SDS011;18952;52.516;13.460;2023-05-07T14:47:37;2.80;;;2.00;;